Time;durP1;ratioP1;P1;durP2;ratioP2;P2;SDS_P1;SDS_P2;PMS_P1;PMS_P2;Temp;Humidity;BMP_temperature;BMP_pressure;BME280_temperature;BME280_humidity;BME280_pressure;Samples;Min_cycle;Max_cycle;Signal;HPM_P1;HPM_P2
2022/03/16 00:01:26;;;;;;;14.65;6.60;;;;;;;-4.24;46.35;101862.19;4842560;29;20049;-77
2022/03/16 00:03:52;;;;;;;10.07;5.18;;;;;;;-4.27;46.83;101852.63;4843787;29;20038;-78
2022/03/16 00:06:18;;;;;;;12.07;5.63;;;;;;;-4.28;46.50;101871.19;4842471;29;20052;-79
2022/03/16 00:08:44;;;;;;;17.92;4.88;;;;;;;-4.36;46.55;101867.13;4845704;29;20052;-79
2022/03/16 00:11:09;;;;;;;11.52;5.28;;;;;;;-4.31;46.53;101880.22;4866281;29;20109;-79
2022/03/16 00:13:36;;;;;;;21.75;6.55;;;;;;;-4.49;47.39;101864.28;4847202;29;20102;-77
2022/03/16 00:16:02;;;;;;;10.07;5.13;;;;;;;-4.48;47.02;101871.16;4843449;29;20049;-80
2022/03/16 00:18:28;;;;;;;11.68;4.90;;;;;;;-4.48;47.25;101877.13;4842804;29;20110;-79
2022/03/16 00:20:55;;;;;;;13.27;5.03;;;;;;;-4.49;47.20;101889.69;4840599;29;20049;-78
2022/03/16 00:23:21;;;;;;;12.93;4.93;;;;;;;-4.51;47.74;101888.69;4841482;29;20065;-79
2022/03/16 00:25:47;;;;;;;13.73;5.18;;;;;;;-4.60;47.27;101879.53;4841207;29;20570;-78
2022/03/16 00:28:14;;;;;;;9.75;4.85;;;;;;;-4.52;48.13;101886.94;4845543;29;20133;-80
2022/03/16 00:30:40;;;;;;;10.05;4.75;;;;;;;-4.58;47.73;101882.19;4854012;29;21270;-77
2022/03/16 00:33:06;;;;;;;8.60;3.97;;;;;;;-4.71;47.86;101878.59;4841766;29;20098;-78
2022/03/16 00:35:32;;;;;;;12.00;4.88;;;;;;;-4.81;47.91;101877.69;4840649;29;20050;-79
2022/03/16 00:37:58;;;;;;;9.52;4.60;;;;;;;-4.97;47.82;101861.13;4838951;29;20097;-79
2022/03/16 00:40:23;;;;;;;11.52;5.38;;;;;;;-4.79;48.10;101889.75;4831923;29;20637;-77
2022/03/16 00:42:49;;;;;;;17.50;5.32;;;;;;;-4.91;48.33;101881.06;4848698;29;20088;-79
2022/03/16 00:45:15;;;;;;;17.90;5.40;;;;;;;-5.08;48.87;101851.66;4831455;29;20084;-77
2022/03/16 00:47:41;;;;;;;12.25;5.20;;;;;;;-4.88;49.02;101887.28;4840638;29;20046;-79
2022/03/16 00:50:09;;;;;;;9.13;5.13;;;;;;;-4.98;49.06;101872.03;4825037;29;20069;-80
2022/03/16 00:52:35;;;;;;;12.50;5.35;;;;;;;-4.89;48.82;101880.44;4857860;29;20054;-78
2022/03/16 00:55:04;;;;;;;15.30;5.70;;;;;;;-4.90;48.56;101905.72;4853931;29;20353;-77
2022/03/16 00:57:31;;;;;;;11.10;5.47;;;;;;;-4.98;48.61;101910.13;4821931;29;20095;-78
2022/03/16 00:59:58;;;;;;;12.55;5.60;;;;;;;-5.09;49.18;101899.03;4852621;29;20042;-77
2022/03/16 01:02:24;;;;;;;11.35;5.60;;;;;;;-5.09;49.60;101908.28;4836870;29;20038;-79
2022/03/16 01:04:51;;;;;;;17.70;6.35;;;;;;;-4.98;49.65;101907.59;4846436;29;20077;-80
2022/03/16 01:07:17;;;;;;;12.23;5.70;;;;;;;-4.88;49.29;101917.78;4858259;29;20791;-78
2022/03/16 01:09:43;;;;;;;18.83;6.80;;;;;;;-5.05;49.42;101864.63;4838257;29;20052;-76
2022/03/16 01:12:09;;;;;;;15.20;6.63;;;;;;;-4.85;49.07;101915.50;4845769;29;20041;-79
2022/03/16 01:14:36;;;;;;;17.23;6.93;;;;;;;-4.96;49.50;101878.09;4853403;29;20052;-77
2022/03/16 01:17:02;;;;;;;20.58;7.38;;;;;;;-4.88;49.15;101917.78;4855068;29;20521;-78
2022/03/16 01:19:31;;;;;;;22.80;6.80;;;;;;;-4.91;49.65;101920.03;4853364;29;20061;-78
2022/03/16 01:21:57;;;;;;;15.82;6.88;;;;;;;-4.93;49.35;101910.53;4846765;29;20114;-77
2022/03/16 01:24:23;;;;;;;29.23;7.40;;;;;;;-5.12;49.25;101875.00;4842436;29;20038;-80
2022/03/16 01:26:49;;;;;;;17.58;6.57;;;;;;;-5.18;48.90;101876.22;4849613;29;20038;-79
2022/03/16 01:29:15;;;;;;;23.00;7.00;;;;;;;-5.13;49.48;101899.50;4851168;29;20419;-79
2022/03/16 01:31:41;;;;;;;17.38;7.03;;;;;;;-5.08;49.48;101903.34;4846957;29;20066;-78
2022/03/16 01:34:07;;;;;;;22.98;9.18;;;;;;;-5.05;49.45;101908.69;4856405;29;20061;-77
2022/03/16 01:36:34;;;;;;;18.10;6.53;;;;;;;-5.15;49.60;101893.41;4840062;29;20038;-78
2022/03/16 01:38:59;;;;;;;20.55;8.35;;;;;;;-5.30;49.18;101891.31;4839020;29;20082;-79
2022/03/16 01:41:25;;;;;;;23.10;8.05;;;;;;;-5.18;49.20;101921.06;4845705;29;20129;-77
2022/03/16 01:43:56;;;;;;;17.20;7.10;;;;;;;-5.15;50.06;101906.09;4841447;29;20052;-77
2022/03/16 01:46:24;;;;;;;16.45;6.50;;;;;;;-5.16;49.58;101905.19;4840704;29;20136;-78
2022/03/16 01:48:56;;;;;;;23.63;7.28;;;;;;;-5.09;49.66;101913.34;4855992;29;20520;-78
2022/03/16 01:51:22;;;;;;;25.92;8.52;;;;;;;-5.06;49.75;101918.72;4840953;29;20069;-77
2022/03/16 01:53:49;;;;;;;16.63;6.53;;;;;;;-5.01;49.07;101920.00;4838687;29;20050;-79
2022/03/16 01:56:16;;;;;;;13.23;6.30;;;;;;;-5.06;49.58;101903.47;4853258;29;20046;-79
2022/03/16 01:58:43;;;;;;;31.48;8.02;;;;;;;-5.25;49.25;101881.53;4842117;29;20186;-78
2022/03/16 02:01:09;;;;;;;18.77;7.13;;;;;;;-5.12;49.59;101910.53;4822863;29;20041;-79
2022/03/16 02:03:35;;;;;;;18.85;6.72;;;;;;;-5.27;49.71;101903.38;4852729;29;20514;-78
2022/03/16 02:06:01;;;;;;;20.20;6.82;;;;;;;-5.26;49.52;101904.25;4838535;29;20095;-77
2022/03/16 02:08:29;;;;;;;22.10;7.75;;;;;;;-5.14;49.85;101916.38;4839046;29;20176;-78
2022/03/16 02:10:56;;;;;;;33.22;8.85;;;;;;;-5.15;49.23;101914.59;4838220;29;20049;-78
2022/03/16 02:13:22;;;;;;;30.08;8.63;;;;;;;-5.24;49.27;101908.72;4823150;29;20590;-79
2022/03/16 02:15:47;;;;;;;41.05;10.63;;;;;;;-5.23;49.76;101913.03;4854153;29;20076;-80
2022/03/16 02:18:14;;;;;;;25.77;8.70;;;;;;;-5.36;49.58;101882.22;4841287;29;20073;-78
2022/03/16 02:20:40;;;;;;;30.83;9.35;;;;;;;-5.40;49.24;101882.69;4841863;29;20069;-76
2022/03/16 02:23:08;;;;;;;41.85;9.77;;;;;;;-5.38;49.41;101906.56;4852625;29;20038;-80
2022/03/16 02:25:48;;;;;;;27.48;8.85;;;;;;;-5.55;49.60;101885.66;4850393;29;20041;-79
2022/03/16 02:28:14;;;;;;;40.60;9.25;;;;;;;-5.45;49.81;101908.59;4850958;29;20056;-78
2022/03/16 02:30:42;;;;;;;32.30;9.88;;;;;;;-5.48;49.79;101908.31;4845318;29;20042;-79
2022/03/16 02:33:08;;;;;;;42.45;9.75;;;;;;;-5.47;49.76;101911.72;4842576;29;20069;-78
2022/03/16 02:35:34;;;;;;;38.45;9.95;;;;;;;-5.98;49.84;101831.06;4857491;29;20094;-78
2022/03/16 02:38:01;;;;;;;38.75;9.45;;;;;;;-5.45;49.58;101933.06;4840677;29;20041;-79
2022/03/16 02:40:27;;;;;;;32.75;8.55;;;;;;;-5.54;50.09;101906.88;4826528;29;20058;-77
2022/03/16 02:42:53;;;;;;;29.73;9.07;;;;;;;-5.52;49.73;101915.53;4857197;29;20560;-78
2022/03/16 02:45:19;;;;;;;35.40;8.63;;;;;;;-5.49;49.76;101931.00;4842317;29;20182;-78
2022/03/16 02:47:45;;;;;;;53.65;11.73;;;;;;;-5.87;49.93;101870.09;4841538;29;20210;-79
2022/03/16 02:50:12;;;;;;;38.15;10.00;;;;;;;-5.85;50.13;101873.66;4825116;29;20045;-78
2022/03/16 02:52:39;;;;;;;35.35;10.18;;;;;;;-5.70;50.08;101905.47;4841006;29;20050;-78
2022/03/16 02:55:07;;;;;;;34.13;10.13;;;;;;;-5.90;49.79;101880.84;4843295;29;20073;-78
2022/03/16 02:57:33;;;;;;;41.95;10.32;;;;;;;-5.67;50.16;101935.31;4841651;29;20041;-77
2022/03/16 02:59:59;;;;;;;22.83;9.40;;;;;;;-5.69;50.22;101932.63;4825419;29;20053;-78
2022/03/16 03:02:25;;;;;;;34.42;9.93;;;;;;;-5.76;50.16;101926.09;4856553;29;20045;-78
2022/03/16 03:04:51;;;;;;;34.83;10.13;;;;;;;-5.82;50.42;101904.38;4855827;29;20038;-77
2022/03/16 03:07:18;;;;;;;33.15;9.95;;;;;;;-5.73;50.14;101930.56;4842226;29;20099;-79
2022/03/16 03:09:44;;;;;;;25.80;10.07;;;;;;;-5.81;50.72;101927.31;4849917;29;20061;-78
2022/03/16 03:12:11;;;;;;;47.03;10.10;;;;;;;-6.00;50.22;101898.53;4855392;29;20072;-79
2022/03/16 03:14:36;;;;;;;27.23;9.25;;;;;;;-5.85;50.39;101932.00;4851329;29;20038;-80
2022/03/16 03:17:03;;;;;;;26.08;8.98;;;;;;;-5.87;50.44;101926.78;4848206;29;20446;-79
2022/03/16 03:19:29;;;;;;;36.00;10.63;;;;;;;-6.10;50.20;101894.28;4841779;29;20064;-79
2022/03/16 03:21:55;;;;;;;30.42;9.68;;;;;;;-5.99;50.58;101924.03;4841249;29;20410;-78
2022/03/16 03:24:21;;;;;;;32.88;10.13;;;;;;;-5.91;50.51;101932.31;4841985;29;20130;-80
2022/03/16 03:26:47;;;;;;;35.20;9.10;;;;;;;-5.92;50.80;101928.00;4843945;29;20362;-80
2022/03/16 03:29:14;;;;;;;33.05;9.77;;;;;;;-6.15;50.41;101905.63;4827648;29;20044;-79
2022/03/16 03:31:41;;;;;;;32.90;9.43;;;;;;;-6.04;50.62;101935.41;4843067;29;20049;-79
2022/03/16 03:34:07;;;;;;;41.40;12.00;;;;;;;-5.97;50.83;101949.50;4847798;29;20071;-77
2022/03/16 03:36:33;;;;;;;46.85;11.60;;;;;;;-6.03;50.68;101933.75;4844263;29;20077;-80
2022/03/16 03:38:59;;;;;;;35.05;9.52;;;;;;;-6.23;51.03;101925.19;4841278;29;20049;-81
2022/03/16 03:41:25;;;;;;;27.40;8.70;;;;;;;-6.00;50.77;101939.09;4844005;29;20041;-79
2022/03/16 03:43:52;;;;;;;25.35;9.68;;;;;;;-5.90;50.96;101951.88;4853955;29;20045;-80
2022/03/16 03:46:18;;;;;;;31.95;8.63;;;;;;;-5.89;50.87;101958.72;4846585;29;20730;-81
2022/03/16 03:48:44;;;;;;;30.15;8.98;;;;;;;-6.08;50.53;101924.09;4858414;29;20042;-79
2022/03/16 03:51:10;;;;;;;47.33;12.40;;;;;;;-5.91;50.82;101967.84;4843332;29;20050;-80
2022/03/16 03:53:36;;;;;;;39.67;12.75;;;;;;;-5.94;50.20;101952.31;4841668;29;20408;-81
2022/03/16 03:56:02;;;;;;;34.90;10.15;;;;;;;-6.11;50.79;101915.31;4841220;29;20046;-79
2022/03/16 03:58:29;;;;;;;37.92;9.13;;;;;;;-6.09;50.96;101902.03;4856276;29;20071;-78
2022/03/16 04:00:57;;;;;;;25.83;10.10;;;;;;;-5.99;50.85;101913.88;4841778;29;20042;-79
2022/03/16 04:03:24;;;;;;;28.83;8.88;;;;;;;-5.57;50.79;101970.91;4833091;29;20045;-80
2022/03/16 04:05:50;;;;;;;22.95;8.82;;;;;;;-5.44;51.09;101975.44;4849795;29;20133;-80
2022/03/16 04:08:16;;;;;;;20.73;8.35;;;;;;;-5.34;50.54;101972.09;4842962;29;20037;-78
2022/03/16 04:10:42;;;;;;;31.35;9.30;;;;;;;-5.18;50.61;101985.41;4849128;29;20110;-81
2022/03/16 04:13:08;;;;;;;20.30;9.27;;;;;;;-5.07;50.91;101973.66;4841843;29;20120;-80
2022/03/16 04:15:34;;;;;;;24.83;9.35;;;;;;;-5.06;50.46;101933.94;4845252;29;20049;-79
2022/03/16 04:18:00;;;;;;;22.83;9.27;;;;;;;-4.95;50.54;101932.34;4840599;29;20510;-78
2022/03/16 04:20:26;;;;;;;24.65;9.55;;;;;;;-4.91;50.04;101942.03;4851416;29;20070;-80
2022/03/16 04:22:55;;;;;;;23.05;9.50;;;;;;;-4.62;50.31;101969.97;4854515;29;20467;-80
2022/03/16 04:25:22;;;;;;;27.23;8.57;;;;;;;-4.36;49.94;101984.06;4823767;29;20197;-81
2022/03/16 04:27:48;;;;;;;21.50;8.77;;;;;;;-4.25;50.13;101983.31;4841073;29;20073;-78
2022/03/16 04:30:15;;;;;;;20.15;9.57;;;;;;;-4.01;50.00;101977.69;4846475;29;20566;-81
2022/03/16 04:32:41;;;;;;;20.40;8.55;;;;;;;-3.67;49.25;101963.59;4849356;29;20094;-80
2022/03/16 04:35:07;;;;;;;25.40;9.57;;;;;;;-2.99;49.41;101985.19;4826520;29;20045;-79
2022/03/16 04:37:33;;;;;;;22.63;9.57;;;;;;;-2.61;49.03;101954.22;4842176;29;20045;-82
2022/03/16 04:39:59;;;;;;;28.25;9.43;;;;;;;-2.48;48.04;101917.84;4839887;29;20045;-83
2022/03/16 04:42:26;;;;;;;23.95;10.60;;;;;;;-1.76;47.33;101972.63;4841495;29;20423;-81
2022/03/16 04:44:51;;;;;;;31.85;14.20;;;;;;;-1.45;47.41;101983.47;4840012;29;20033;-79
2022/03/16 04:47:18;;;;;;;21.20;9.85;;;;;;;-1.18;46.79;101991.44;4842345;29;20042;-80
2022/03/16 04:49:44;;;;;;;25.88;11.82;;;;;;;-0.84;46.49;101993.00;4842613;29;20080;-80
2022/03/16 04:52:10;;;;;;;26.27;11.60;;;;;;;-0.40;46.71;101941.59;4850697;29;20042;-81
2022/03/16 04:54:36;;;;;;;25.58;11.00;;;;;;;1.37;45.38;101984.00;4851553;29;20038;-79
2022/03/16 04:57:05;;;;;;;26.13;11.27;;;;;;;2.99;44.57;101977.38;4855299;29;20117;-81
2022/03/16 04:59:31;;;;;;;19.55;11.68;;;;;;;4.17;42.57;101897.81;4871959;29;20061;-79
2022/03/16 05:01:57;;;;;;;21.83;11.50;;;;;;;5.93;40.56;101966.34;4848530;29;20064;-80
2022/03/16 05:04:23;;;;;;;18.90;10.80;;;;;;;7.06;38.88;101953.00;4850142;29;20133;-78
2022/03/16 05:06:49;;;;;;;25.17;10.45;;;;;;;8.10;37.34;101944.81;4869347;29;20049;-79
2022/03/16 05:09:18;;;;;;;18.90;10.63;;;;;;;9.10;35.85;101937.75;4860222;29;20048;-80
2022/03/16 05:11:44;;;;;;;19.10;11.32;;;;;;;10.04;34.29;101939.63;4862584;29;20053;-80
2022/03/16 05:14:11;;;;;;;19.80;11.02;;;;;;;10.97;32.99;101932.47;4847840;29;20037;-80
2022/03/16 05:16:37;;;;;;;14.88;10.25;;;;;;;11.89;31.54;101960.50;4828746;29;20553;-79
2022/03/16 05:19:06;;;;;;;18.80;10.95;;;;;;;12.46;30.16;101926.81;4875864;29;20485;-79
2022/03/16 05:21:32;;;;;;;17.48;10.43;;;;;;;13.37;29.40;101932.50;4868388;29;20129;-80
2022/03/16 05:24:01;;;;;;;15.10;11.02;;;;;;;14.14;28.23;101951.78;4857528;29;20098;-80
2022/03/16 05:26:27;;;;;;;17.40;9.85;;;;;;;14.92;27.37;101952.50;4848417;29;20057;-81
2022/03/16 05:28:53;;;;;;;18.10;10.43;;;;;;;15.44;26.24;101924.84;4872842;29;20037;-79
2022/03/16 05:31:20;;;;;;;15.20;10.00;;;;;;;16.12;25.41;101956.63;4862648;29;20061;-77
2022/03/16 05:33:48;;;;;;;13.45;10.20;;;;;;;16.50;24.42;101926.03;4862009;29;20066;-79
2022/03/16 05:36:14;;;;;;;14.43;10.15;;;;;;;17.26;23.85;101955.75;4840687;29;20057;-80
2022/03/16 05:38:40;;;;;;;16.90;9.88;;;;;;;17.83;22.70;101956.41;4872054;29;20057;-82
2022/03/16 05:41:11;;;;;;;19.00;9.98;;;;;;;18.45;22.62;101956.06;4868949;29;20076;-79
2022/03/16 05:43:38;;;;;;;15.90;10.15;;;;;;;18.89;21.26;101941.63;4843037;29;20041;-79
2022/03/16 05:46:03;;;;;;;15.82;10.10;;;;;;;19.47;20.91;101951.59;4840373;29;20049;-82
2022/03/16 05:48:32;;;;;;;14.13;10.82;;;;;;;20.02;20.38;101950.94;4856332;29;20045;-81
2022/03/16 05:50:59;;;;;;;15.00;10.32;;;;;;;20.37;19.67;101939.84;4854019;29;20050;-78
2022/03/16 05:53:25;;;;;;;17.27;11.20;;;;;;;20.76;19.15;101914.53;4839062;29;20427;-80
2022/03/16 05:55:54;;;;;;;16.30;12.23;;;;;;;21.46;18.62;101952.88;4854889;29;20069;-80
2022/03/16 05:58:21;;;;;;;19.98;12.10;;;;;;;22.00;18.24;101961.50;4842587;29;20394;-79
2022/03/16 06:00:47;;;;;;;17.52;10.90;;;;;;;22.42;17.63;101923.38;4827453;29;20178;-79
2022/03/16 06:03:13;;;;;;;15.43;10.45;;;;;;;22.98;17.11;101940.56;4858313;29;20068;-80
2022/03/16 06:05:39;;;;;;;17.92;9.68;;;;;;;23.41;16.47;101939.38;4843380;29;20543;-80
2022/03/16 06:08:05;;;;;;;13.98;9.82;;;;;;;23.57;16.14;101934.50;4840726;29;20403;-79
2022/03/16 06:10:31;;;;;;;13.15;10.02;;;;;;;23.82;15.94;101924.88;4859781;29;20132;-80
2022/03/16 06:13:06;;;;;;;15.25;10.38;;;;;;;24.35;15.53;101961.34;4847370;29;20096;-80
2022/03/16 06:15:46;;;;;;;16.25;10.43;;;;;;;24.87;15.07;101955.22;4861688;29;20049;-79
2022/03/16 06:18:12;;;;;;;13.60;10.23;;;;;;;25.45;14.64;101959.38;4845516;29;20080;-81
2022/03/16 06:20:39;;;;;;;14.02;9.80;;;;;;;25.85;14.48;101942.72;4838964;29;20069;-79
2022/03/16 06:23:08;;;;;;;19.25;11.18;;;;;;;26.52;13.92;101968.53;4871227;29;20108;-82
2022/03/16 06:25:35;;;;;;;44.55;14.30;;;;;;;26.80;13.35;101973.59;4832652;29;20062;-79
2022/03/16 06:28:02;;;;;;;19.63;13.20;;;;;;;26.77;13.45;101914.94;4874222;29;20084;-78
2022/03/16 06:30:29;;;;;;;21.50;13.40;;;;;;;27.41;13.20;101949.56;4861437;29;20045;-79
2022/03/16 06:32:55;;;;;;;21.48;13.70;;;;;;;27.82;12.57;101946.75;4848361;29;20137;-77
2022/03/16 06:35:21;;;;;;;17.55;11.18;;;;;;;28.20;12.37;101956.56;4843450;29;20042;-77
2022/03/16 06:37:48;;;;;;;20.38;12.38;;;;;;;28.64;12.19;101949.91;4855514;29;20061;-79
2022/03/16 06:40:14;;;;;;;21.38;13.02;;;;;;;29.12;11.99;101967.06;4863509;29;20064;-80
2022/03/16 06:42:55;;;;;;;19.33;13.00;;;;;;;29.39;11.69;101969.22;4816096;29;20060;-79
2022/03/16 06:45:25;;;;;;;19.33;12.50;;;;;;;29.49;11.53;101960.66;4842917;29;20038;-78
2022/03/16 06:47:55;;;;;;;16.43;10.47;;;;;;;29.57;11.26;101967.31;4854548;29;20406;-80
2022/03/16 06:50:21;;;;;;;15.32;10.93;;;;;;;29.72;11.01;101957.56;4830473;29;20662;-78
2022/03/16 06:52:52;;;;;;;12.93;9.32;;;;;;;29.90;11.16;101944.09;4846538;29;20510;-81
2022/03/16 06:55:21;;;;;;;13.93;9.52;;;;;;;30.15;11.05;101937.31;4842877;29;20050;-80
2022/03/16 06:57:47;;;;;;;13.48;9.60;;;;;;;30.66;10.50;101961.22;4843638;29;20038;-81
2022/03/16 07:00:14;;;;;;;13.07;9.27;;;;;;;30.71;10.41;101953.72;4850449;29;20049;-80
2022/03/16 07:03:00;;;;;;;14.35;9.77;;;;;;;31.05;10.11;101973.16;4855991;29;20182;-81
2022/03/16 07:05:28;;;;;;;18.63;10.52;;;;;;;31.05;10.26;101950.78;4869610;29;20076;-81
2022/03/16 07:07:57;;;;;;;12.57;9.48;;;;;;;31.18;10.00;101967.91;4855089;29;20140;-80
2022/03/16 07:10:24;;;;;;;14.82;9.80;;;;;;;31.52;9.89;101971.16;4842420;29;20052;-82
2022/03/16 07:12:50;;;;;;;19.85;10.82;;;;;;;31.55;9.94;101945.91;4843634;29;20190;-81
2022/03/16 07:15:17;;;;;;;17.98;9.63;;;;;;;31.13;10.25;101961.03;4845739;29;20049;-81
2022/03/16 07:17:43;;;;;;;12.77;9.50;;;;;;;30.83;9.89;101956.63;4839346;29;20105;-80
2022/03/16 07:20:10;;;;;;;10.20;7.50;;;;;;;31.48;9.42;101939.16;4841419;29;20118;-81
2022/03/16 07:22:36;;;;;;;7.85;6.70;;;;;;;30.87;10.04;101963.53;4840829;29;20050;-81
2022/03/16 07:25:04;;;;;;;7.18;6.47;;;;;;;30.51;9.56;101977.22;4855991;29;20102;-82
2022/03/16 07:27:30;;;;;;;10.60;7.72;;;;;;;30.07;10.21;101975.31;4841341;29;20141;-82
2022/03/16 07:29:56;;;;;;;8.48;6.10;;;;;;;30.39;10.00;101969.03;4811380;29;20499;-82
2022/03/16 07:32:23;;;;;;;8.70;6.38;;;;;;;31.09;9.24;101946.94;4857668;29;20049;-81
2022/03/16 07:34:49;;;;;;;10.10;7.93;;;;;;;30.66;9.55;101928.97;4866917;29;20050;-81
2022/03/16 07:37:17;;;;;;;15.05;7.13;;;;;;;31.29;9.35;101952.91;4861222;29;20366;-80
2022/03/16 07:39:43;;;;;;;9.25;6.47;;;;;;;31.61;8.95;101950.00;4866114;29;20045;-80
2022/03/16 07:42:10;;;;;;;9.40;6.93;;;;;;;31.08;8.66;101964.03;4860575;29;20065;-81
2022/03/16 07:44:36;;;;;;;10.68;6.20;;;;;;;30.54;9.55;101951.16;4831876;29;20052;-81
2022/03/16 07:47:02;;;;;;;6.38;5.55;;;;;;;29.73;9.59;101967.34;4846176;29;20133;-82
2022/03/16 07:49:29;;;;;;;8.90;6.30;;;;;;;29.61;9.49;101968.03;4846498;29;20042;-81
2022/03/16 07:51:56;;;;;;;7.95;6.18;;;;;;;29.86;9.30;101958.63;4854866;29;20414;-82
2022/03/16 07:54:22;;;;;;;6.28;5.63;;;;;;;29.80;9.31;101932.13;4834757;29;20418;-81
2022/03/16 07:56:48;;;;;;;6.75;5.35;;;;;;;30.69;9.46;101952.09;4851605;29;20054;-81
2022/03/16 07:59:15;;;;;;;8.77;5.72;;;;;;;31.39;9.38;101965.69;4841440;29;20056;-81
2022/03/16 08:01:43;;;;;;;7.25;5.47;;;;;;;31.15;8.91;101960.03;4854854;29;20058;-82
2022/03/16 08:04:09;;;;;;;8.57;6.13;;;;;;;31.22;9.07;101929.13;4863960;29;20042;-82
2022/03/16 08:06:36;;;;;;;9.13;6.45;;;;;;;30.62;8.57;101879.94;4862875;29;20049;-83
2022/03/16 08:09:02;;;;;;;6.57;5.75;;;;;;;30.36;9.06;101943.25;4864275;29;20061;-82
2022/03/16 08:11:28;;;;;;;7.05;5.63;;;;;;;30.84;9.23;101959.19;4860880;29;20049;-82
2022/03/16 08:13:54;;;;;;;6.90;6.18;;;;;;;30.82;9.32;101965.63;4858168;29;20053;-82
2022/03/16 08:16:20;;;;;;;7.30;5.95;;;;;;;31.72;9.55;101946.66;4841452;29;20042;-80
2022/03/16 08:18:46;;;;;;;13.18;5.90;;;;;;;32.20;9.03;101948.88;4824650;29;20058;-81
2022/03/16 08:21:12;;;;;;;7.95;6.63;;;;;;;31.64;8.96;101952.50;4840614;29;20418;-81
2022/03/16 08:23:38;;;;;;;7.13;5.65;;;;;;;31.90;9.03;101953.50;4855658;29;20085;-82
2022/03/16 08:26:04;;;;;;;9.50;5.97;;;;;;;32.08;8.37;101948.75;4827745;29;20053;-81
2022/03/16 08:28:30;;;;;;;6.80;6.10;;;;;;;31.90;8.70;101931.97;4845779;29;20041;-82
2022/03/16 08:31:01;;;;;;;7.43;6.50;;;;;;;31.39;8.61;101943.31;4827140;29;20105;-81
2022/03/16 08:33:27;;;;;;;6.90;5.95;;;;;;;31.71;8.52;101951.16;4855841;29;20233;-81
2022/03/16 08:35:53;;;;;;;7.05;6.07;;;;;;;32.47;8.41;101956.09;4838715;29;20108;-79
2022/03/16 08:38:19;;;;;;;11.85;6.65;;;;;;;32.24;8.42;101951.25;4841793;29;20054;-82
2022/03/16 08:40:46;;;;;;;8.38;6.65;;;;;;;31.85;8.42;101958.31;4849146;29;20134;-81
2022/03/16 08:43:12;;;;;;;7.90;6.78;;;;;;;30.94;8.86;101921.88;4841233;29;20041;-81
2022/03/16 08:45:39;;;;;;;10.63;7.93;;;;;;;29.96;8.66;101957.16;4839276;29;20046;-81
2022/03/16 08:48:05;;;;;;;9.00;7.10;;;;;;;29.35;9.16;101938.13;4839927;29;20046;-81
2022/03/16 08:50:31;;;;;;;15.93;8.95;;;;;;;29.71;9.01;101953.16;4841040;29;20065;-81
2022/03/16 08:52:57;;;;;;;8.52;7.18;;;;;;;29.91;8.84;101946.66;4839681;29;20045;-83
2022/03/16 08:55:24;;;;;;;10.80;7.28;;;;;;;27.33;9.19;101934.72;4823994;29;20037;-81
2022/03/16 08:57:50;;;;;;;16.25;9.95;;;;;;;25.48;9.87;101927.28;4847142;29;20069;-83
2022/03/16 09:00:18;;;;;;;14.23;8.90;;;;;;;25.60;10.25;101952.59;4840145;29;20402;-82
2022/03/16 09:02:45;;;;;;;11.20;7.80;;;;;;;23.80;9.96;101937.34;4846082;29;20052;-83
2022/03/16 09:05:17;;;;;;;7.57;6.63;;;;;;;24.86;11.19;101948.16;4840230;29;20050;-82
2022/03/16 09:07:43;;;;;;;8.60;6.63;;;;;;;26.81;10.54;101947.78;4823951;29;20135;-81
2022/03/16 09:10:10;;;;;;;12.25;8.07;;;;;;;27.61;10.18;101949.53;4853707;29;20459;-80
2022/03/16 09:12:37;;;;;;;10.77;8.23;;;;;;;28.31;10.61;101926.59;4853530;29;20049;-79
2022/03/16 09:15:04;;;;;;;8.60;6.18;;;;;;;28.94;9.57;101936.75;4839501;29;20533;-81
2022/03/16 09:17:30;;;;;;;7.65;6.30;;;;;;;30.23;9.19;101947.63;4831765;29;20038;-84
2022/03/16 09:19:57;;;;;;;7.35;6.22;;;;;;;30.84;9.26;101905.47;4855727;29;20240;-81
2022/03/16 09:22:24;;;;;;;7.57;6.18;;;;;;;30.90;8.86;101923.91;4831014;29;20114;-81
2022/03/16 09:24:50;;;;;;;7.50;6.35;;;;;;;30.64;8.84;101938.94;4855210;29;20057;-80
2022/03/16 09:27:16;;;;;;;6.43;5.43;;;;;;;30.89;9.00;101868.44;4864345;29;20045;-82
2022/03/16 09:29:46;;;;;;;8.80;6.00;;;;;;;30.18;8.69;101937.13;4837336;29;20156;-81
2022/03/16 09:32:13;;;;;;;8.13;6.00;;;;;;;29.51;9.18;101932.84;4840974;29;20133;-81
2022/03/16 09:34:42;;;;;;;7.72;6.03;;;;;;;29.69;8.88;101941.66;4854218;29;20403;-82
2022/03/16 09:37:10;;;;;;;6.57;5.93;;;;;;;30.19;8.70;101950.47;4853977;29;20049;-80
2022/03/16 09:39:37;;;;;;;7.75;6.03;;;;;;;30.16;9.27;101939.03;4846118;29;20050;-83
2022/03/16 09:42:04;;;;;;;8.25;5.82;;;;;;;29.54;9.27;101945.19;4839156;29;20048;-82
2022/03/16 09:44:31;;;;;;;7.70;6.35;;;;;;;29.06;9.25;101924.50;4855225;29;20141;-80
2022/03/16 09:46:57;;;;;;;7.10;5.45;;;;;;;29.24;9.49;101951.28;4852832;29;20562;-79
2022/03/16 09:49:26;;;;;;;8.68;6.03;;;;;;;30.26;9.10;101945.59;4844619;29;20061;-81
2022/03/16 09:51:53;;;;;;;7.68;6.70;;;;;;;30.55;8.52;101940.34;4839302;29;20171;-79
2022/03/16 09:54:20;;;;;;;8.43;5.55;;;;;;;29.46;8.65;101951.84;4838590;29;20034;-82
2022/03/16 09:56:49;;;;;;;5.97;5.38;;;;;;;30.16;9.04;101949.78;4837283;29;20632;-79
2022/03/16 09:59:15;;;;;;;6.97;5.80;;;;;;;29.85;8.76;101932.75;4844387;29;20048;-81
2022/03/16 10:01:44;;;;;;;6.35;5.45;;;;;;;29.54;9.00;101939.84;4855088;29;20636;-81
2022/03/16 10:04:10;;;;;;;7.70;6.20;;;;;;;29.13;9.16;101920.56;4857388;29;20046;-81
2022/03/16 10:06:38;;;;;;;6.93;6.25;;;;;;;28.71;9.44;101932.56;4856460;29;20054;-79
2022/03/16 10:15:05;;;;;;;8.25;6.68;;;;;;;26.76;9.73;101914.09;4854072;29;20224;-82
2022/03/16 10:17:43;;;;;;;9.68;6.75;;;;;;;26.68;10.15;101928.72;4838718;29;20049;-79
2022/03/16 10:20:26;;;;;;;8.13;6.75;;;;;;;25.97;10.24;101930.69;4839051;29;20103;-79
2022/03/16 10:22:54;;;;;;;8.38;6.00;;;;;;;23.51;10.80;101896.59;4837888;29;20167;-79
2022/03/16 10:25:20;;;;;;;9.20;6.63;;;;;;;21.70;11.04;101928.59;4837816;29;20037;-80
2022/03/16 10:27:46;;;;;;;8.88;6.20;;;;;;;20.06;11.69;101938.53;4822267;29;20113;-81
2022/03/16 10:30:15;;;;;;;5.93;5.32;;;;;;;18.43;12.92;101913.91;4845199;29;20581;-80
2022/03/16 10:32:54;;;;;;;7.07;5.75;;;;;;;17.99;13.24;101944.94;4838793;29;20057;-79
2022/03/16 10:35:21;;;;;;;9.75;5.95;;;;;;;17.58;13.58;101946.00;4837909;29;20046;-81
2022/03/16 10:37:47;;;;;;;9.38;7.68;;;;;;;16.59;13.93;101940.91;4821904;29;20128;-80
2022/03/16 10:40:23;;;;;;;8.98;6.82;;;;;;;15.61;14.67;101920.53;4838952;29;20217;-79
2022/03/16 10:48:22;;;;;;;7.82;6.05;;;;;;;12.46;16.41;101958.13;4858492;29;20046;-80
2022/03/16 10:50:55;;;;;;;8.75;5.30;;;;;;;11.96;16.96;101961.50;4847965;29;20052;-81
2022/03/16 10:53:28;;;;;;;36.05;6.55;;;;;;;11.40;17.71;101945.56;4870546;29;20056;-78
2022/03/16 10:55:56;;;;;;;6.35;4.32;;;;;;;11.06;17.47;101970.88;4853255;29;20075;-78
2022/03/16 10:58:24;;;;;;;7.97;5.90;;;;;;;10.59;17.91;101970.59;4834269;29;20149;-79
2022/03/16 11:00:52;;;;;;;9.27;5.57;;;;;;;10.11;18.52;101941.53;4844402;29;20049;-79
2022/03/16 11:03:24;;;;;;;7.10;5.32;;;;;;;9.80;18.52;101961.50;4845758;29;20609;-79
2022/03/16 11:05:50;;;;;;;;;;;;;;;9.53;18.70;101964.16;4843212;29;20042;-80
2022/03/16 11:08:18;;;;;;;9.07;5.55;;;;;;;9.38;18.81;101967.19;4840599;29;19920;-79
2022/03/16 11:10:46;;;;;;;5.95;4.18;;;;;;;9.17;18.47;101957.88;4841946;29;20160;-79
2022/03/16 11:13:32;;;;;;;6.97;4.00;;;;;;;9.08;19.09;101955.88;4843368;29;20038;-80
2022/03/16 11:16:00;;;;;;;6.05;4.47;;;;;;;8.83;19.26;101943.81;4843518;29;20052;-81
2022/03/16 11:18:27;;;;;;;6.18;4.07;;;;;;;8.67;19.33;101953.72;4858204;29;20053;-80
2022/03/16 11:20:59;;;;;;;7.25;4.50;;;;;;;8.17;19.67;101893.16;4842785;29;20106;-79
2022/03/16 11:26:50;;;;;;;5.65;3.60;;;;;;;7.89;20.65;101950.13;4852005;29;20045;-79
2022/03/16 11:29:38;;;;;;;5.53;3.45;;;;;;;7.59;20.40;101945.56;4846455;29;20054;-81
2022/03/16 11:32:14;;;;;;;7.38;4.07;;;;;;;7.35;20.78;101946.38;4832747;29;20078;-81
2022/03/16 11:34:47;;;;;;;5.55;4.00;;;;;;;7.14;21.02;101953.31;4831863;29;20872;-79